Time;durP1;ratioP1;P1;durP2;ratioP2;P2;SDS_P1;SDS_P2;PMS_P1;PMS_P2;Temp;Humidity;BMP_temperature;BMP_pressure;BME280_temperature;BME280_humidity;BME280_pressure;Samples;Min_cycle;Max_cycle;Signal;HPM_P1;HPM_P2
2021/10/17 00:00:24;;;;;;;18.10;11.15;;;;;;;;;;5095421;28;20194;-74
2021/10/17 00:02:51;;;;;;;17.75;10.30;;;;;;;;;;5094838;28;20236;-74
2021/10/17 00:05:19;;;;;;;16.17;11.60;;;;;;;;;;5094709;28;20658;-75
2021/10/17 00:07:47;;;;;;;14.63;11.20;;;;;;;;;;5094981;28;20235;-74
2021/10/17 00:10:15;;;;;;;18.17;11.70;;;;;;;;;;5094514;28;20227;-74
2021/10/17 00:12:43;;;;;;;22.65;12.00;;;;;;;;;;5095322;28;20203;-74
2021/10/17 00:15:12;;;;;;;16.65;11.32;;;;;;;;;;5094940;28;20217;-74
2021/10/17 00:17:41;;;;;;;19.75;11.48;;;;;;;;;;5094910;28;20196;-74
2021/10/17 00:20:09;;;;;;;18.25;10.52;;;;;;;;;;5094719;28;20203;-74
2021/10/17 00:22:36;;;;;;;19.55;11.88;;;;;;;;;;5094693;28;20207;-74
2021/10/17 00:25:04;;;;;;;20.65;11.75;;;;;;;;;;5094608;28;20556;-74
2021/10/17 00:27:31;;;;;;;23.08;10.30;;;;;;;;;;5094582;28;20189;-74
2021/10/17 00:29:58;;;;;;;20.00;11.70;;;;;;;;;;5094139;28;20216;-74
2021/10/17 00:32:26;;;;;;;24.80;11.23;;;;;;;;;;5094744;28;20790;-74
2021/10/17 00:34:54;;;;;;;16.23;11.07;;;;;;;;;;5094506;28;20200;-74
2021/10/17 00:37:21;;;;;;;21.30;11.87;;;;;;;;;;5095223;28;20283;-74
2021/10/17 00:39:49;;;;;;;17.70;11.27;;;;;;;;;;5094012;28;20447;-75
2021/10/17 00:42:18;;;;;;;25.73;12.35;;;;;;;;;;5094552;28;20646;-74
2021/10/17 00:44:45;;;;;;;18.58;10.32;;;;;;;;;;5094883;28;20288;-74
2021/10/17 00:47:13;;;;;;;24.00;11.77;;;;;;;;;;5093975;28;20193;-74
2021/10/17 00:49:40;;;;;;;24.50;11.25;;;;;;;;;;5094283;28;20503;-75
2021/10/17 00:52:08;;;;;;;19.42;11.25;;;;;;;;;;5094361;28;20200;-75
2021/10/17 00:54:35;;;;;;;19.97;9.87;;;;;;;;;;5094387;28;20210;-75
2021/10/17 00:57:03;;;;;;;16.50;10.05;;;;;;;;;;5094281;28;20443;-74
2021/10/17 00:59:30;;;;;;;18.30;11.30;;;;;;;;;;5094086;28;20201;-74
2021/10/17 01:01:57;;;;;;;23.52;10.98;;;;;;;;;;5094137;28;20707;-73
2021/10/17 01:04:24;;;;;;;17.75;11.15;;;;;;;;;;5093894;28;20582;-74
2021/10/17 01:06:51;;;;;;;20.73;11.27;;;;;;;;;;5093326;28;20277;-73
2021/10/17 01:09:20;;;;;;;23.38;11.85;;;;;;;;;;5093557;28;20480;-73
2021/10/17 01:11:48;;;;;;;19.33;10.93;;;;;;;;;;5093592;28;20325;-73
2021/10/17 01:14:16;;;;;;;22.13;12.00;;;;;;;;;;5093831;28;20482;-73
2021/10/17 01:16:44;;;;;;;13.87;10.93;;;;;;;;;;5093619;28;20532;-73
2021/10/17 01:19:11;;;;;;;18.43;11.27;;;;;;;;;;5093433;28;20450;-73
2021/10/17 01:21:40;;;;;;;19.08;10.85;;;;;;;;;;5093399;28;20443;-73
2021/10/17 01:24:08;;;;;;;17.88;11.68;;;;;;;;;;5093539;28;20197;-73
2021/10/17 01:26:35;;;;;;;20.57;10.30;;;;;;;;;;5093438;28;20197;-73
2021/10/17 01:29:03;;;;;;;16.30;10.43;;;;;;;;;;5093192;28;20538;-73
2021/10/17 01:31:34;;;;;;;18.90;10.27;;;;;;;;;;5093233;28;20520;-73
2021/10/17 01:34:01;;;;;;;18.97;10.47;;;;;;;;;;5093312;28;20204;-73
2021/10/17 01:36:28;;;;;;;22.83;11.18;;;;;;;;;;5093323;28;20472;-73
2021/10/17 01:38:57;;;;;;;20.10;10.87;;;;;;;;;;5093246;28;20232;-74
2021/10/17 01:41:25;;;;;;;17.37;10.80;;;;;;;;;;5093230;28;20462;-73
2021/10/17 01:43:52;;;;;;;18.30;11.07;;;;;;;;;;5093790;28;20538;-75
2021/10/17 01:46:19;;;;;;;21.20;10.43;;;;;;;;;;5093270;28;20447;-74
2021/10/17 01:48:47;;;;;;;16.05;9.95;;;;;;;;;;5093159;28;20470;-73
2021/10/17 01:51:14;;;;;;;16.67;10.20;;;;;;;;;;5093080;28;20225;-73
2021/10/17 01:53:41;;;;;;;18.70;11.93;;;;;;;;;;5093806;28;20439;-74
2021/10/17 01:56:10;;;;;;;16.13;10.73;;;;;;;;;;5096849;28;20475;-74
2021/10/17 01:58:37;;;;;;;17.77;11.40;;;;;;;;;;5097172;28;20278;-74
2021/10/17 02:01:05;;;;;;;24.03;10.67;;;;;;;;;;5096773;28;20210;-73
2021/10/17 02:03:32;;;;;;;20.33;12.00;;;;;;;;;;5096858;28;20474;-74
2021/10/17 02:06:02;;;;;;;25.52;11.02;;;;;;;;;;5097437;28;20526;-74
2021/10/17 02:08:29;;;;;;;14.07;10.57;;;;;;;;;;5096921;28;20201;-74
2021/10/17 02:10:56;;;;;;;18.40;10.53;;;;;;;;;;5096785;28;20514;-74
2021/10/17 02:13:25;;;;;;;21.13;11.98;;;;;;;;;;5097153;28;20487;-74
2021/10/17 02:15:52;;;;;;;20.17;11.85;;;;;;;;;;5096414;28;20223;-74
2021/10/17 02:18:19;;;;;;;17.97;10.90;;;;;;;;;;5096729;28;20224;-74
2021/10/17 02:20:47;;;;;;;17.30;10.67;;;;;;;;;;5096755;28;20470;-74
2021/10/17 02:23:14;;;;;;;19.67;11.03;;;;;;;;;;5097310;28;20439;-74
2021/10/17 02:25:41;;;;;;;18.13;11.40;;;;;;;;;;5097139;28;20530;-74
2021/10/17 02:28:08;;;;;;;19.17;10.77;;;;;;;;;;5096788;28;20439;-74
2021/10/17 02:30:37;;;;;;;17.80;12.25;;;;;;;;;;5096539;28;20576;-75
2021/10/17 02:33:04;;;;;;;15.73;11.60;;;;;;;;;;5096445;28;20197;-73
2021/10/17 02:35:31;;;;;;;20.00;11.43;;;;;;;;;;5096373;28;20358;-73
2021/10/17 02:37:59;;;;;;;16.70;11.83;;;;;;;;;;5096058;28;20435;-73
2021/10/17 02:40:26;;;;;;;27.23;11.88;;;;;;;;;;5095999;28;20997;-73
2021/10/17 02:42:53;;;;;;;17.23;11.60;;;;;;;;;;5095956;28;20652;-73
2021/10/17 02:45:20;;;;;;;25.65;11.98;;;;;;;;;;5096410;28;20200;-73
2021/10/17 02:47:49;;;;;;;20.50;11.75;;;;;;;;;;5096271;28;20727;-73
2021/10/17 02:50:16;;;;;;;16.88;11.25;;;;;;;;;;5096092;28;20217;-73
2021/10/17 02:52:43;;;;;;;18.42;11.10;;;;;;;;;;5095853;28;20200;-73
2021/10/17 02:55:11;;;;;;;18.08;10.70;;;;;;;;;;5095798;28;20198;-73
2021/10/17 02:57:38;;;;;;;19.53;11.37;;;;;;;;;;5096336;28;20201;-75
2021/10/17 03:00:05;;;;;;;17.10;11.45;;;;;;;;;;5096048;28;20438;-73
2021/10/17 03:02:33;;;;;;;25.63;11.97;;;;;;;;;;5095603;28;20289;-73
2021/10/17 03:05:02;;;;;;;16.97;11.50;;;;;;;;;;5096566;28;20788;-73
2021/10/17 03:07:29;;;;;;;18.58;11.05;;;;;;;;;;5095638;28;20442;-73
2021/10/17 03:09:56;;;;;;;18.15;11.65;;;;;;;;;;5095474;28;20222;-74
2021/10/17 03:12:23;;;;;;;16.23;12.13;;;;;;;;;;5095398;28;20644;-74
2021/10/17 03:14:50;;;;;;;17.13;12.27;;;;;;;;;;5095770;28;20471;-74
2021/10/17 03:17:18;;;;;;;16.70;11.20;;;;;;;;;;5095885;28;20518;-74
2021/10/17 03:19:45;;;;;;;26.55;11.43;;;;;;;;;;5095378;28;20447;-74
2021/10/17 03:22:13;;;;;;;18.45;11.20;;;;;;;;;;5095711;28;20254;-75
2021/10/17 03:24:41;;;;;;;19.10;11.67;;;;;;;;;;5096328;28;20240;-74
2021/10/17 03:27:08;;;;;;;25.35;11.82;;;;;;;;;;5095463;28;20440;-74
2021/10/17 03:29:35;;;;;;;17.60;12.20;;;;;;;;;;5095414;28;20194;-74
2021/10/17 03:32:02;;;;;;;18.38;12.07;;;;;;;;;;5095468;28;20489;-75
2021/10/17 03:34:29;;;;;;;20.00;11.40;;;;;;;;;;5095054;28;20685;-74
2021/10/17 03:36:57;;;;;;;15.87;11.57;;;;;;;;;;5095585;28;20235;-74
2021/10/17 03:39:25;;;;;;;17.10;11.47;;;;;;;;;;5095221;28;20449;-74
2021/10/17 03:41:52;;;;;;;17.73;11.35;;;;;;;;;;5095254;28;20477;-74
2021/10/17 03:44:19;;;;;;;15.23;11.48;;;;;;;;;;5095500;28;20213;-74
2021/10/17 03:46:47;;;;;;;13.23;10.65;;;;;;;;;;5095155;28;20207;-74
2021/10/17 03:49:14;;;;;;;26.10;12.32;;;;;;;;;;5095092;28;20604;-74
2021/10/17 03:51:41;;;;;;;22.50;12.20;;;;;;;;;;5095041;28;20308;-74
2021/10/17 03:54:08;;;;;;;27.80;11.68;;;;;;;;;;5095043;28;20432;-74
2021/10/17 03:56:37;;;;;;;19.27;12.57;;;;;;;;;;5095351;28;20207;-74
2021/10/17 03:59:04;;;;;;;20.02;11.65;;;;;;;;;;5094562;28;20446;-73
2021/10/17 04:01:31;;;;;;;22.20;11.20;;;;;;;;;;5094898;28;20387;-74
2021/10/17 04:03:58;;;;;;;15.98;12.27;;;;;;;;;;5094773;28;20562;-74
2021/10/17 04:06:25;;;;;;;19.40;13.38;;;;;;;;;;5094760;28;20203;-73
2021/10/17 04:08:52;;;;;;;17.98;11.63;;;;;;;;;;5095151;28;20197;-73
2021/10/17 04:11:20;;;;;;;18.30;11.95;;;;;;;;;;5094589;28;20244;-73
2021/10/17 04:13:48;;;;;;;18.53;11.03;;;;;;;;;;5095166;28;20299;-75
2021/10/17 04:16:15;;;;;;;22.40;11.83;;;;;;;;;;5094131;28;20746;-73
2021/10/17 04:18:43;;;;;;;15.97;11.30;;;;;;;;;;5094712;28;20461;-73
2021/10/17 04:21:10;;;;;;;14.75;10.43;;;;;;;;;;5094382;28;20443;-73
2021/10/17 04:23:37;;;;;;;21.63;12.10;;;;;;;;;;5094487;28;20215;-74
2021/10/17 04:26:04;;;;;;;20.33;11.30;;;;;;;;;;5094053;28;20193;-73
2021/10/17 04:28:31;;;;;;;16.85;12.73;;;;;;;;;;5094310;28;20454;-74
2021/10/17 04:31:00;;;;;;;28.33;13.07;;;;;;;;;;5094118;28;20578;-75
2021/10/17 04:33:27;;;;;;;17.60;11.85;;;;;;;;;;5094460;28;20200;-78
2021/10/17 04:35:54;;;;;;;19.83;11.87;;;;;;;;;;5093912;28;20648;-75
2021/10/17 04:38:21;;;;;;;19.73;12.50;;;;;;;;;;5093561;28;20454;-75
2021/10/17 04:40:49;;;;;;;22.55;13.73;;;;;;;;;;5094407;28;20569;-75
2021/10/17 04:43:16;;;;;;;19.05;12.07;;;;;;;;;;5093663;28;20752;-76
2021/10/17 04:45:43;;;;;;;18.33;12.77;;;;;;;;;;5074356;28;20193;-76
2021/10/17 04:48:12;;;;;;;17.75;11.35;;;;;;;;;;5073567;28;20295;-75
2021/10/17 04:50:39;;;;;;;19.85;12.70;;;;;;;;;;5073707;28;20256;-75
2021/10/17 04:53:06;;;;;;;22.60;13.43;;;;;;;;;;5073305;28;20194;-75
2021/10/17 04:55:33;;;;;;;17.00;12.30;;;;;;;;;;5073604;28;20220;-76
2021/10/17 04:58:02;;;;;;;21.98;12.35;;;;;;;;;;5073213;28;20486;-75
2021/10/17 05:00:30;;;;;;;13.60;10.98;;;;;;;;;;5073562;28;20570;-76
2021/10/17 05:02:57;;;;;;;24.90;12.70;;;;;;;;;;5087383;28;20206;-75
2021/10/17 05:05:25;;;;;;;16.25;13.02;;;;;;;;;;5094029;28;20199;-75
2021/10/17 05:07:53;;;;;;;18.80;12.10;;;;;;;;;;5093288;28;20652;-76
2021/10/17 05:10:20;;;;;;;21.85;11.85;;;;;;;;;;5093244;28;20310;-76
2021/10/17 05:12:47;;;;;;;20.75;11.80;;;;;;;;;;5093396;28;20203;-76
2021/10/17 05:15:14;;;;;;;15.30;11.30;;;;;;;;;;5093262;28;20293;-75
2021/10/17 05:17:41;;;;;;;24.17;11.88;;;;;;;;;;5093927;28;20605;-76
2021/10/17 05:20:09;;;;;;;20.30;12.27;;;;;;;;;;5093538;28;20284;-76
2021/10/17 05:22:38;;;;;;;15.40;11.73;;;;;;;;;;5093994;28;20548;-76
2021/10/17 05:25:05;;;;;;;18.67;11.75;;;;;;;;;;5093092;28;20205;-75
2021/10/17 05:27:32;;;;;;;17.92;12.18;;;;;;;;;;5093837;28;20202;-76
2021/10/17 05:29:59;;;;;;;20.15;11.65;;;;;;;;;;5092756;28;20201;-77
2021/10/17 05:32:27;;;;;;;20.98;12.35;;;;;;;;;;5093191;28;20223;-77
2021/10/17 05:34:54;;;;;;;15.15;12.00;;;;;;;;;;5093351;28;20291;-77
2021/10/17 05:37:21;;;;;;;20.77;12.73;;;;;;;;;;5092885;28;20200;-76
2021/10/17 05:39:50;;;;;;;18.27;12.52;;;;;;;;;;5093249;28;20227;-76
2021/10/17 05:42:17;;;;;;;15.47;12.40;;;;;;;;;;5092865;28;20197;-75
2021/10/17 05:44:44;;;;;;;15.30;12.63;;;;;;;;;;5093529;28;20453;-75
2021/10/17 05:47:11;;;;;;;19.17;12.23;;;;;;;;;;5093135;28;20192;-75
2021/10/17 05:49:39;;;;;;;17.50;11.30;;;;;;;;;;5092866;28;20197;-76
2021/10/17 05:52:06;;;;;;;15.65;12.13;;;;;;;;;;5091639;28;20694;-75
2021/10/17 05:54:33;;;;;;;12.25;10.80;;;;;;;;;;5092625;28;20203;-67
2021/10/17 05:57:02;;;;;;;21.13;12.73;;;;;;;;;;5091602;28;20915;-73
2021/10/17 05:59:29;;;;;;;23.38;12.70;;;;;;;;;;5093267;28;20530;-73
2021/10/17 06:01:56;;;;;;;17.73;13.63;;;;;;;;;;5092623;28;20202;-73
2021/10/17 06:04:23;;;;;;;19.95;12.10;;;;;;;;;;5092634;28;20692;-83
2021/10/17 06:06:50;;;;;;;16.85;13.07;;;;;;;;;;5093189;28;20265;-73
2021/10/17 06:09:18;;;;;;;20.02;13.95;;;;;;;;;;5093738;28;20203;-74
2021/10/17 06:11:45;;;;;;;18.52;12.70;;;;;;;;;;5092494;28;20710;-74
2021/10/17 06:14:13;;;;;;;16.25;13.25;;;;;;;;;;5093334;28;20223;-73
2021/10/17 06:16:40;;;;;;;18.42;13.48;;;;;;;;;;5092597;28;20200;-73
2021/10/17 06:19:08;;;;;;;24.03;14.60;;;;;;;;;;5092563;28;20276;-73
2021/10/17 06:21:35;;;;;;;17.63;13.63;;;;;;;;;;5092808;28;20454;-73
2021/10/17 06:24:02;;;;;;;18.90;13.77;;;;;;;;;;5092799;28;20223;-74
2021/10/17 06:26:29;;;;;;;19.23;13.88;;;;;;;;;;5092796;28;20458;-74
2021/10/17 06:28:56;;;;;;;22.70;13.40;;;;;;;;;;5092506;28;20201;-73
2021/10/17 06:31:25;;;;;;;16.73;11.80;;;;;;;;;;5092345;28;20482;-74
2021/10/17 06:33:52;;;;;;;14.37;12.10;;;;;;;;;;5092468;28;20438;-74
2021/10/17 06:36:20;;;;;;;19.30;12.57;;;;;;;;;;5092356;28;20914;-74
2021/10/17 06:38:47;;;;;;;18.03;11.70;;;;;;;;;;5093185;28;20453;-74
2021/10/17 06:41:14;;;;;;;19.20;12.30;;;;;;;;;;5095714;28;20469;-74
2021/10/17 06:43:41;;;;;;;14.70;12.43;;;;;;;;;;5096263;28;20452;-74
2021/10/17 06:46:08;;;;;;;17.87;12.30;;;;;;;;;;5096324;28;20446;-74
2021/10/17 06:48:37;;;;;;;14.03;12.27;;;;;;;;;;5096677;28;20440;-74
2021/10/17 06:51:04;;;;;;;29.00;12.70;;;;;;;;;;5096457;28;20795;-74
2021/10/17 06:53:31;;;;;;;20.10;13.77;;;;;;;;;;5095937;28;20523;-74
2021/10/17 06:55:58;;;;;;;22.50;13.90;;;;;;;;;;5096044;28;20453;-74
2021/10/17 06:58:26;;;;;;;17.63;13.07;;;;;;;;;;5096289;28;20463;-74
2021/10/17 07:00:53;;;;;;;19.00;13.37;;;;;;;;;;5096040;28;20444;-74
2021/10/17 07:03:20;;;;;;;19.83;12.70;;;;;;;;;;5095449;28;20506;-74
2021/10/17 07:05:49;;;;;;;15.57;12.23;;;;;;;;;;5096579;28;20764;-74
2021/10/17 07:08:16;;;;;;;18.77;12.57;;;;;;;;;;5096126;28;20490;-74
2021/10/17 07:10:43;;;;;;;22.73;12.67;;;;;;;;;;5095825;28;20435;-74
2021/10/17 07:13:10;;;;;;;19.27;12.15;;;;;;;;;;5095963;28;20454;-74
2021/10/17 07:15:37;;;;;;;15.43;11.47;;;;;;;;;;5095444;28;20265;-74
2021/10/17 07:18:05;;;;;;;17.67;11.90;;;;;;;;;;5095364;28;20439;-74
2021/10/17 07:20:32;;;;;;;16.73;12.80;;;;;;;;;;5095690;28;20918;-74
2021/10/17 07:23:01;;;;;;;14.97;11.17;;;;;;;;;;5095946;28;20449;-74
2021/10/17 07:25:28;;;;;;;18.13;12.30;;;;;;;;;;5095858;28;20447;-74
2021/10/17 07:27:55;;;;;;;13.27;10.70;;;;;;;;;;5095521;28;20530;-74
2021/10/17 07:30:22;;;;;;;19.67;12.10;;;;;;;;;;5095677;28;20446;-75
2021/10/17 07:32:49;;;;;;;23.50;15.20;;;;;;;;;;5095042;28;20504;-75
2021/10/17 07:35:17;;;;;;;15.10;10.70;;;;;;;;;;5095246;28;20285;-74
2021/10/17 07:37:44;;;;;;;18.17;12.37;;;;;;;;;;5095322;28;20447;-75
2021/10/17 07:40:13;;;;;;;21.63;11.67;;;;;;;;;;5095226;28;20479;-75
2021/10/17 07:42:40;;;;;;;19.23;11.48;;;;;;;;;;5094827;28;20443;-74
2021/10/17 07:45:08;;;;;;;23.87;12.90;;;;;;;;;;5095241;28;20200;-75
2021/10/17 07:47:36;;;;;;;20.08;11.70;;;;;;;;;;5095230;28;20452;-75
2021/10/17 07:50:03;;;;;;;20.97;11.90;;;;;;;;;;5094597;28;20225;-75
2021/10/17 07:52:30;;;;;;;15.70;11.87;;;;;;;;;;5093702;28;21013;-75
2021/10/17 07:54:58;;;;;;;18.77;11.97;;;;;;;;;;5094906;28;20440;-74
2021/10/17 07:57:26;;;;;;;15.10;12.10;;;;;;;;;;5095346;28;20440;-74
2021/10/17 07:59:54;;;;;;;20.50;12.53;;;;;;;;;;5094708;28;20488;-75
2021/10/17 08:02:21;;;;;;;22.73;12.57;;;;;;;;;;5094978;28;20457;-74
2021/10/17 08:04:49;;;;;;;14.53;11.57;;;;;;;;;;5094622;28;20562;-74
2021/10/17 08:07:16;;;;;;;15.50;12.17;;;;;;;;;;5094358;28;20451;-75
2021/10/17 08:09:44;;;;;;;27.40;14.87;;;;;;;;;;5094424;28;20440;-75
2021/10/17 08:12:11;;;;;;;17.53;11.37;;;;;;;;;;5094559;28;20794;-75
2021/10/17 08:14:39;;;;;;;22.03;12.03;;;;;;;;;;5094789;28;20486;-76
2021/10/17 08:17:07;;;;;;;18.97;11.93;;;;;;;;;;5093485;28;20537;-74
2021/10/17 08:19:34;;;;;;;13.33;10.57;;;;;;;;;;5094358;28;20463;-74
2021/10/17 08:22:01;;;;;;;16.43;11.10;;;;;;;;;;5094426;28;20450;-75
2021/10/17 08:24:28;;;;;;;17.13;12.80;;;;;;;;;;5094404;28;20449;-75
2021/10/17 08:26:56;;;;;;;20.70;10.93;;;;;;;;;;5094775;28;20789;-75
2021/10/17 08:29:23;;;;;;;15.50;11.33;;;;;;;;;;5094600;28;20440;-75
2021/10/17 08:31:51;;;;;;;16.63;10.40;;;;;;;;;;5094222;28;20480;-75
2021/10/17 08:34:18;;;;;;;22.13;12.10;;;;;;;;;;5094224;28;20434;-75
2021/10/17 08:36:46;;;;;;;20.83;11.87;;;;;;;;;;5093839;28;20443;-75
2021/10/17 08:39:13;;;;;;;14.40;11.47;;;;;;;;;;5094157;28;20798;-75
2021/10/17 08:41:40;;;;;;;15.00;10.67;;;;;;;;;;5094246;28;20444;-75
2021/10/17 08:44:08;;;;;;;15.00;11.87;;;;;;;;;;5093660;28;20539;-74
2021/10/17 08:46:35;;;;;;;22.77;11.03;;;;;;;;;;5094063;28;20522;-75
2021/10/17 08:49:04;;;;;;;18.80;10.70;;;;;;;;;;5093489;28;20468;-75
2021/10/17 08:51:31;;;;;;;12.30;10.93;;;;;;;;;;5093665;28;20446;-75
2021/10/17 08:53:58;;;;;;;14.10;11.07;;;;;;;;;;5093859;28;20862;-75
2021/10/17 08:56:26;;;;;;;17.53;12.20;;;;;;;;;;5093462;28;20439;-75
2021/10/17 08:58:53;;;;;;;14.23;10.40;;;;;;;;;;5093799;28;20443;-75
2021/10/17 09:01:20;;;;;;;16.63;11.43;;;;;;;;;;5094252;28;20436;-75
2021/10/17 09:03:58;;;;;;;18.07;13.07;;;;;;;;;;5093534;28;20503;-75
2021/10/17 09:06:27;;;;;;;15.57;12.07;;;;;;;;;;5093416;28;20416;-75
2021/10/17 09:09:05;;;;;;;13.77;12.37;;;;;;;;;;5093708;28;20439;-75
2021/10/17 09:11:43;;;;;;;14.97;11.80;;;;;;;;;;5093954;28;20760;-75
2021/10/17 09:14:11;;;;;;;23.93;11.97;;;;;;;;;;5093140;28;20447;-75
2021/10/17 09:16:39;;;;;;;16.07;12.40;;;;;;;;;;5093796;28;20439;-75
2021/10/17 09:19:14;;;;;;;16.07;12.13;;;;;;;;;;5093075;28;20446;-75
2021/10/17 09:21:55;;;;;;;16.17;11.20;;;;;;;;;;5093727;28;20519;-76
2021/10/17 09:24:26;;;;;;;15.40;11.40;;;;;;;;;;5093502;28;20894;-76
2021/10/17 09:27:04;;;;;;;18.20;12.40;;;;;;;;;;5093816;28;20473;-74
2021/10/17 09:29:31;;;;;;;29.00;12.33;;;;;;;;;;5093690;28;20523;-74
2021/10/17 09:31:59;;;;;;;21.17;12.07;;;;;;;;;;5093229;28;20485;-77
2021/10/17 09:34:27;;;;;;;20.37;11.73;;;;;;;;;;5093757;28;20448;-77
2021/10/17 09:37:08;;;;;;;28.67;14.10;;;;;;;;;;5093557;28;20432;-76
2021/10/17 09:39:37;;;;;;;15.73;11.73;;;;;;;;;;5093244;28;20428;-76
2021/10/17 09:42:04;;;;;;;21.70;13.27;;;;;;;;;;5093078;28;20459;-77
2021/10/17 09:44:42;;;;;;;12.70;11.37;;;;;;;;;;5094032;28;20539;-77
2021/10/17 09:47:09;;;;;;;15.20;11.87;;;;;;;;;;5092959;28;20440;-78
2021/10/17 09:49:36;;;;;;;20.73;11.80;;;;;;;;;;5093093;28;20441;-77
2021/10/17 09:52:15;;;;;;;21.90;12.40;;;;;;;;;;5093296;28;20476;-78
2021/10/17 09:54:43;;;;;;;16.53;11.87;;;;;;;;;;5093501;28;20420;-78
2021/10/17 09:57:10;;;;;;;17.67;10.53;;;;;;;;;;5092988;28;20440;-78
2021/10/17 09:59:37;;;;;;;18.13;12.17;;;;;;;;;;5093284;28;20531;-78
2021/10/17 10:02:06;;;;;;;20.33;11.60;;;;;;;;;;5093255;28;20451;-77
2021/10/17 10:04:33;;;;;;;19.43;10.93;;;;;;;;;;5093142;28;20464;-77
2021/10/17 10:07:01;;;;;;;17.73;11.60;;;;;;;;;;5093199;28;20956;-77
2021/10/17 10:09:32;;;;;;;17.10;11.10;;;;;;;;;;5092851;28;20522;-77
2021/10/17 10:12:00;;;;;;;14.60;11.00;;;;;;;;;;5094000;28;20553;-78
2021/10/17 10:14:27;;;;;;;19.90;11.27;;;;;;;;;;5093711;28;20446;-78
2021/10/17 10:16:56;;;;;;;18.40;11.00;;;;;;;;;;5096705;28;20435;-79
2021/10/17 10:19:23;;;;;;;18.23;10.80;;;;;;;;;;5097126;28;20441;-78
2021/10/17 10:21:50;;;;;;;16.17;11.03;;;;;;;;;;5097235;28;20793;-78
2021/10/17 10:24:19;;;;;;;17.30;11.40;;;;;;;;;;5097363;28;20532;-77
2021/10/17 10:26:52;;;;;;;15.00;10.67;;;;;;;;;;5096943;28;20802;-77
2021/10/17 10:29:24;;;;;;;11.30;10.20;;;;;;;;;;5097324;28;20435;-76
2021/10/17 10:31:52;;;;;;;16.60;11.37;;;;;;;;;;5096964;28;20435;-79
2021/10/17 10:34:38;;;;;;;13.50;10.40;;;;;;;;;;5096437;28;20483;-78
2021/10/17 10:37:13;;;;;;;16.17;9.83;;;;;;;;;;5097343;28;20795;-78
2021/10/17 10:40:05;;;;;;;12.47;9.60;;;;;;;;;;5097176;28;20485;-77
2021/10/17 10:42:35;;;;;;;17.07;9.73;;;;;;;;;;5096642;28;20453;-77
2021/10/17 10:45:17;;;;;;;15.67;10.33;;;;;;;;;;5096937;28;20503;-77
2021/10/17 10:47:47;;;;;;;13.20;9.93;;;;;;;;;;5096856;28;20465;-77
2021/10/17 10:50:14;;;;;;;16.00;10.43;;;;;;;;;;5096225;28;20920;-78
2021/10/17 10:52:44;;;;;;;19.43;11.33;;;;;;;;;;5096534;28;20480;-76
2021/10/17 10:55:12;;;;;;;14.67;9.50;;;;;;;;;;5096699;28;20547;-77
2021/10/17 10:57:42;;;;;;;14.97;9.90;;;;;;;;;;5096105;28;20962;-77
2021/10/17 11:00:10;;;;;;;16.23;10.83;;;;;;;;;;5096362;28;21006;-78
2021/10/17 11:02:38;;;;;;;15.60;10.50;;;;;;;;;;5096716;28;20437;-77
2021/10/17 11:05:15;;;;;;;13.33;9.30;;;;;;;;;;5096851;28;20538;-77
2021/10/17 11:07:44;;;;;;;13.53;9.63;;;;;;;;;;5096415;28;20428;-78
2021/10/17 11:10:46;;;;;;;11.37;10.20;;;;;;;;;;5096831;28;20437;-76
2021/10/17 11:13:28;;;;;;;13.27;9.33;;;;;;;;;;5096896;28;20489;-78
2021/10/17 11:15:55;;;;;;;22.23;10.43;;;;;;;;;;5096183;28;20452;-78
2021/10/17 11:18:29;;;;;;;15.93;9.90;;;;;;;;;;5095953;28;20961;-78
2021/10/17 11:20:56;;;;;;;12.77;10.10;;;;;;;;;;5096431;28;20513;-79
2021/10/17 11:23:24;;;;;;;10.83;8.07;;;;;;;;;;5096412;28;20524;-78
2021/10/17 11:25:53;;;;;;;14.30;8.73;;;;;;;;;;5095295;28;20435;-78
2021/10/17 11:28:21;;;;;;;11.40;8.90;;;;;;;;;;5095414;28;20437;-77
2021/10/17 11:30:52;;;;;;;14.67;9.73;;;;;;;;;;5095721;28;20489;-77
2021/10/17 11:33:20;;;;;;;16.80;10.20;;;;;;;;;;5095855;28;20461;-78
2021/10/17 11:35:48;;;;;;;16.10;9.70;;;;;;;;;;5095377;28;20981;-78
2021/10/17 11:38:16;;;;;;;14.77;9.00;;;;;;;;;;5095681;28;20444;-78
2021/10/17 11:40:44;;;;;;;12.70;9.07;;;;;;;;;;5095289;28;20944;-78
2021/10/17 11:43:12;;;;;;;11.17;8.20;;;;;;;;;;5095426;28;20552;-77
2021/10/17 11:45:40;;;;;;;16.30;8.73;;;;;;;;;;5095774;28;20446;-78
2021/10/17 11:48:09;;;;;;;18.00;9.97;;;;;;;;;;5095522;28;20833;-76
2021/10/17 11:50:38;;;;;;;14.23;9.87;;;;;;;;;;5095359;28;20468;-79
2021/10/17 11:53:06;;;;;;;18.90;11.10;;;;;;;;;;5095287;28;20495;-77
2021/10/17 11:55:34;;;;;;;19.07;9.87;;;;;;;;;;5094975;28;20491;-78
2021/10/17 11:58:02;;;;;;;22.13;8.77;;;;;;;;;;5095491;28;20492;-78
2021/10/17 12:00:30;;;;;;;15.50;9.50;;;;;;;;;;5095274;28;20442;-78
2021/10/17 12:02:58;;;;;;;11.10;9.20;;;;;;;;;;5095380;28;20540;-77
2021/10/17 12:05:27;;;;;;;15.47;9.47;;;;;;;;;;5095028;28;20999;-78
2021/10/17 12:07:56;;;;;;;18.93;9.27;;;;;;;;;;5094984;28;20438;-77
2021/10/17 12:10:24;;;;;;;14.17;9.57;;;;;;;;;;5094669;28;20441;-77
2021/10/17 12:12:51;;;;;;;14.50;9.13;;;;;;;;;;5094635;28;20481;-77
2021/10/17 12:15:18;;;;;;;13.30;9.70;;;;;;;;;;5095267;28;20541;-78
2021/10/17 12:17:56;;;;;;;16.60;9.03;;;;;;;;;;5095011;28;20841;-77
2021/10/17 12:20:23;;;;;;;14.20;8.80;;;;;;;;;;5095551;28;20510;-78
2021/10/17 12:22:52;;;;;;;14.83;8.70;;;;;;;;;;5094669;28;20950;-77
2021/10/17 12:25:20;;;;;;;13.00;10.53;;;;;;;;;;5094379;28;20541;-77
2021/10/17 12:27:47;;;;;;;15.43;10.30;;;;;;;;;;5094337;28;20960;-77
2021/10/17 12:30:17;;;;;;;12.43;8.23;;;;;;;;;;5094572;28;20956;-77
2021/10/17 12:32:45;;;;;;;14.70;8.13;;;;;;;;;;5094635;28;20481;-77
2021/10/17 12:35:16;;;;;;;13.53;10.23;;;;;;;;;;5094256;28;20487;-76
2021/10/17 12:37:44;;;;;;;14.80;8.20;;;;;;;;;;5093761;28;20976;-76
2021/10/17 12:40:13;;;;;;;12.60;8.63;;;;;;;;;;5094443;28;20458;-76
2021/10/17 12:42:45;;;;;;;16.23;9.30;;;;;;;;;;5094152;28;20478;-77
2021/10/17 12:45:13;;;;;;;14.10;8.57;;;;;;;;;;5094220;28;20458;-78
2021/10/17 12:47:41;;;;;;;12.53;8.20;;;;;;;;;;5094979;28;20451;-77
2021/10/17 12:50:15;;;;;;;9.60;7.90;;;;;;;;;;5093948;28;20455;-77
2021/10/17 12:52:42;;;;;;;11.33;8.13;;;;;;;;;;5094064;28;20520;-77
2021/10/17 12:55:13;;;;;;;13.07;9.40;;;;;;;;;;5094191;28;20444;-77
2021/10/17 12:57:42;;;;;;;15.23;7.83;;;;;;;;;;5093949;28;20506;-78
2021/10/17 13:00:10;;;;;;;10.53;8.20;;;;;;;;;;5094122;28;20471;-77
2021/10/17 13:02:38;;;;;;;12.33;8.33;;;;;;;;;;5093947;28;20438;-77
2021/10/17 13:05:08;;;;;;;15.47;8.80;;;;;;;;;;5094400;28;20489;-77
2021/10/17 13:07:36;;;;;;;11.90;8.23;;;;;;;;;;5094326;28;20443;-78
2021/10/17 13:10:05;;;;;;;10.10;6.90;;;;;;;;;;5093929;28;20434;-77
2021/10/17 13:12:40;;;;;;;14.10;8.50;;;;;;;;;;5093478;28;20445;-77
2021/10/17 13:15:10;;;;;;;15.43;6.87;;;;;;;;;;5094681;28;20842;-78
2021/10/17 13:17:38;;;;;;;9.70;6.93;;;;;;;;;;5094039;28;20827;-78
2021/10/17 13:20:06;;;;;;;9.50;5.77;;;;;;;;;;5093778;28;20491;-77
2021/10/17 13:22:34;;;;;;;9.70;6.73;;;;;;;;;;5093411;28;21074;-78
2021/10/17 13:25:01;;;;;;;9.23;7.23;;;;;;;;;;5093352;28;20452;-78
2021/10/17 13:27:29;;;;;;;13.73;7.10;;;;;;;;;;5093830;28;20467;-77
2021/10/17 13:29:57;;;;;;;10.77;7.70;;;;;;;;;;5093270;28;20452;-77
2021/10/17 13:32:27;;;;;;;12.20;7.20;;;;;;;;;;5094099;28;20480;-77
2021/10/17 13:34:55;;;;;;;8.67;6.77;;;;;;;;;;5093837;28;20513;-77
2021/10/17 13:37:22;;;;;;;11.17;6.37;;;;;;;;;;5093202;28;20445;-77
2021/10/17 13:39:49;;;;;;;12.10;6.47;;;;;;;;;;5093041;28;20442;-78
2021/10/17 13:42:17;;;;;;;11.57;5.73;;;;;;;;;;5093294;28;20442;-77
2021/10/17 13:44:44;;;;;;;6.83;4.67;;;;;;;;;;5093175;28;20441;-77
2021/10/17 13:47:11;;;;;;;8.53;5.37;;;;;;;;;;5093499;28;20444;-77
2021/10/17 13:49:41;;;;;;;10.63;5.83;;;;;;;;;;5094133;28;21012;-77
2021/10/17 13:52:08;;;;;;;13.30;5.70;;;;;;;;;;5097621;28;20435;-77
2021/10/17 13:54:35;;;;;;;9.20;5.20;;;;;;;;;;5097156;28;20473;-78
2021/10/17 13:57:02;;;;;;;7.27;5.57;;;;;;;;;;5097456;28;20927;-78
2021/10/17 13:59:30;;;;;;;10.63;5.87;;;;;;;;;;5097458;28;20450;-79
2021/10/17 14:01:59;;;;;;;9.70;6.43;;;;;;;;;;5097455;28;20488;-78
2021/10/17 14:04:27;;;;;;;11.43;5.90;;;;;;;;;;5096770;28;20484;-79
2021/10/17 14:06:56;;;;;;;13.00;7.43;;;;;;;;;;5097286;28;20816;-78
2021/10/17 14:09:23;;;;;;;12.60;5.20;;;;;;;;;;5097266;28;20485;-77
2021/10/17 14:11:50;;;;;;;9.70;5.90;;;;;;;;;;5097392;28;20460;-78
2021/10/17 14:14:18;;;;;;;9.27;5.90;;;;;;;;;;5097293;28;20561;-78
2021/10/17 14:16:45;;;;;;;7.43;5.07;;;;;;;;;;5096939;28;20522;-78
2021/10/17 14:19:12;;;;;;;15.20;5.83;;;;;;;;;;5096722;28;20441;-78
2021/10/17 14:21:40;;;;;;;11.80;5.20;;;;;;;;;;5096518;28;21011;-77
2021/10/17 14:24:09;;;;;;;10.40;6.70;;;;;;;;;;5096804;28;20471;-78
2021/10/17 14:26:36;;;;;;;11.63;6.10;;;;;;;;;;5096572;28;20468;-78